Time;durP1;ratioP1;P1;durP2;ratioP2;P2;SDS_P1;SDS_P2;PMS_P1;PMS_P2;Temp;Humidity;BMP_temperature;BMP_pressure;BME280_temperature;BME280_humidity;BME280_pressure;Samples;Min_cycle;Max_cycle;Signal;HPM_P1;HPM_P2
2021/01/31 00:01:11;;;;;;;40.87;23.53;;;-0.60;99.90;;;;;;4983924;28;20208;-77
2021/01/31 00:03:37;;;;;;;43.20;24.40;;;-0.60;99.90;;;;;;4966933;28;20236;-78
2021/01/31 00:06:05;;;;;;;44.80;25.20;;;-0.50;99.90;;;;;;4966464;28;20196;-78
2021/01/31 00:08:32;;;;;;;40.83;22.60;;;-0.60;99.90;;;;;;4982679;28;20216;-78
2021/01/31 00:10:59;;;;;;;39.93;21.67;;;-0.60;99.90;;;;;;4985552;28;20220;-77
2021/01/31 00:13:27;;;;;;;40.43;22.60;;;-0.60;99.90;;;;;;4985522;28;20200;-77
2021/01/31 00:15:55;;;;;;;41.03;22.27;;;-0.60;99.90;;;;;;4984605;28;20207;-78
2021/01/31 00:18:24;;;;;;;40.73;21.83;;;-0.70;99.90;;;;;;4986130;28;20214;-77
2021/01/31 00:20:53;;;;;;;38.80;22.03;;;-0.70;99.90;;;;;;4985877;28;20200;-78
2021/01/31 00:23:19;;;;;;;37.00;21.43;;;-0.70;99.90;;;;;;4977689;28;20224;-78
2021/01/31 00:25:46;;;;;;;36.87;21.90;;;-0.60;99.90;;;;;;4966307;28;20240;-78
2021/01/31 00:28:13;;;;;;;34.87;19.87;;;-0.60;99.90;;;;;;4966074;28;20219;-77
2021/01/31 00:30:42;;;;;;;37.23;21.87;;;-0.70;99.90;;;;;;4966901;28;20852;-78
2021/01/31 00:33:11;;;;;;;39.17;21.57;;;-0.70;99.90;;;;;;4966657;28;20205;-78
2021/01/31 00:35:39;;;;;;;42.13;21.93;;;-0.70;99.90;;;;;;4965932;28;20239;-78
2021/01/31 00:38:05;;;;;;;36.87;21.77;;;-0.70;99.90;;;;;;4966720;28;20213;-78
2021/01/31 00:40:31;;;;;;;40.40;22.70;;;-0.70;99.90;;;;;;4974023;28;20855;-78
2021/01/31 00:42:57;;;;;;;41.27;22.47;;;-0.70;99.90;;;;;;4985926;28;20219;-78
2021/01/31 00:45:26;;;;;;;37.67;21.13;;;-0.70;99.90;;;;;;4985676;28;20204;-78
2021/01/31 00:47:53;;;;;;;38.90;23.27;;;-0.70;99.90;;;;;;4983884;28;20203;-78
2021/01/31 00:50:25;;;;;;;40.07;22.63;;;-0.70;99.90;;;;;;4985588;28;20208;-78
2021/01/31 00:52:51;;;;;;;41.97;22.80;;;-0.70;99.90;;;;;;4985043;28;20216;-79
2021/01/31 00:55:18;;;;;;;39.80;22.83;;;-0.70;99.90;;;;;;4985189;28;20208;-78
2021/01/31 00:57:45;;;;;;;37.63;21.13;;;-0.70;99.90;;;;;;4972390;28;20216;-78
2021/01/31 01:00:15;;;;;;;38.87;22.23;;;-0.70;99.90;;;;;;4966528;28;20596;-78
2021/01/31 01:02:41;;;;;;;42.30;23.83;;;-0.70;99.90;;;;;;4965397;28;20204;-78
2021/01/31 01:05:09;;;;;;;43.60;22.43;;;-0.80;99.90;;;;;;4966019;28;20683;-77
2021/01/31 01:07:37;;;;;;;39.27;22.17;;;-0.80;99.90;;;;;;4965887;28;20884;-78
2021/01/31 01:10:04;;;;;;;43.73;23.30;;;-0.70;99.90;;;;;;4965508;28;20200;-78
2021/01/31 01:12:30;;;;;;;42.33;23.60;;;-0.70;99.90;;;;;;4971475;28;20207;-78
2021/01/31 01:14:57;;;;;;;42.10;22.73;;;-0.70;99.90;;;;;;4985842;28;20906;-78
2021/01/31 01:17:23;;;;;;;40.27;23.43;;;-0.70;99.90;;;;;;4983919;28;20204;-78
2021/01/31 01:19:49;;;;;;;40.77;23.00;;;-0.80;99.90;;;;;;4985321;28;20295;-77
2021/01/31 01:22:16;;;;;;;42.00;23.90;;;-0.80;99.90;;;;;;4984566;28;20631;-78
2021/01/31 01:24:43;;;;;;;41.60;24.17;;;-0.80;99.90;;;;;;4983043;28;20232;-78
2021/01/31 01:27:09;;;;;;;44.13;24.23;;;-0.90;99.90;;;;;;4985405;28;20251;-79
2021/01/31 01:29:35;;;;;;;40.93;22.53;;;-0.80;99.90;;;;;;4969494;28;20216;-78
2021/01/31 01:32:03;;;;;;;42.03;22.63;;;-0.90;99.90;;;;;;4968631;28;20208;-79
2021/01/31 01:34:29;;;;;;;42.97;24.40;;;-0.90;99.90;;;;;;4985781;28;20479;-79
2021/01/31 01:36:55;;;;;;;42.87;23.17;;;-0.90;99.90;;;;;;4984377;28;20615;-79
2021/01/31 01:39:21;;;;;;;42.37;23.40;;;-1.00;99.90;;;;;;4977106;28;20240;-78
2021/01/31 01:41:48;;;;;;;42.13;23.23;;;-1.00;99.90;;;;;;4965688;28;20204;-78
2021/01/31 01:44:15;;;;;;;45.07;24.00;;;-1.00;99.90;;;;;;4965467;28;20519;-78
2021/01/31 01:46:48;;;;;;;43.77;25.13;;;-1.00;99.90;;;;;;4971679;28;20220;-79
2021/01/31 01:49:20;;;;;;;42.57;24.43;;;-0.90;99.90;;;;;;4984895;28;20199;-79
2021/01/31 01:51:51;;;;;;;42.17;22.60;;;-1.00;99.90;;;;;;4984283;28;20204;-79
2021/01/31 01:54:23;;;;;;;42.43;24.17;;;-1.00;99.90;;;;;;4984727;28;20200;-78
2021/01/31 01:56:54;;;;;;;39.73;21.83;;;-1.00;99.90;;;;;;4967679;28;20216;-79
2021/01/31 01:59:21;;;;;;;42.67;22.90;;;-1.00;99.90;;;;;;4964367;28;20199;-79
2021/01/31 02:01:59;;;;;;;45.47;24.73;;;-1.00;99.90;;;;;;4973364;28;20216;-78
2021/01/31 02:04:25;;;;;;;42.47;23.23;;;-1.10;99.90;;;;;;4984511;28;20351;-79
2021/01/31 02:06:52;;;;;;;43.83;23.33;;;-1.10;99.90;;;;;;4983520;28;20203;-78
2021/01/31 02:09:18;;;;;;;44.83;24.57;;;-1.10;99.90;;;;;;4967847;28;20212;-79
2021/01/31 02:11:45;;;;;;;43.47;23.13;;;-1.10;99.90;;;;;;4964268;28;20215;-78
2021/01/31 02:14:12;;;;;;;41.63;23.60;;;-1.10;99.90;;;;;;4965028;28;20204;-79
2021/01/31 02:16:52;;;;;;;42.83;24.20;;;-1.10;99.90;;;;;;4964902;28;20212;-78
2021/01/31 02:20:07;;;;;;;41.30;22.80;;;-1.10;99.90;;;;;;4971656;28;20207;-78
2021/01/31 02:23:13;;;;;;;45.57;23.97;;;-1.20;99.90;;;;;;4984031;28;20211;-79
2021/01/31 02:25:52;;;;;;;38.10;21.93;;;-1.10;99.90;;;;;;4981539;28;20243;-80
2021/01/31 02:28:59;;;;;;;40.57;22.60;;;-1.20;99.90;;;;;;4964900;28;20215;-78
2021/01/31 02:31:57;;;;;;;43.67;23.70;;;-1.20;99.90;;;;;;4926177;28;20211;-79
2021/01/31 02:34:35;;;;;;;44.87;24.47;;;-1.20;99.90;;;;;;4964631;28;20251;-78
2021/01/31 02:37:17;;;;;;;44.90;24.00;;;-1.20;99.90;;;;;;4965376;28;20204;-79
2021/01/31 02:39:52;;;;;;;44.43;23.93;;;-1.20;99.90;;;;;;4973760;28;20250;-78
2021/01/31 02:42:24;;;;;;;45.63;23.63;;;-1.20;99.90;;;;;;4984372;28;21054;-81
2021/01/31 02:44:59;;;;;;;47.07;25.50;;;-1.20;99.90;;;;;;4984219;28;20224;-79
2021/01/31 02:47:28;;;;;;;41.97;23.77;;;-1.30;99.90;;;;;;4982934;28;20204;-80
2021/01/31 02:50:00;;;;;;;43.20;24.43;;;-1.30;99.90;;;;;;4981753;28;20936;-80
2021/01/31 02:52:34;;;;;;;43.17;23.17;;;-1.30;99.90;;;;;;4986200;28;20426;-79
2021/01/31 02:55:07;;;;;;;45.30;23.67;;;-1.30;99.90;;;;;;4984502;28;20214;-80
2021/01/31 02:57:37;;;;;;;44.10;24.37;;;-1.30;99.90;;;;;;4984604;28;20216;-79
2021/01/31 03:00:09;;;;;;;45.33;25.10;;;-1.40;99.90;;;;;;4984708;28;20580;-79
2021/01/31 03:02:39;;;;;;;42.93;22.83;;;-1.40;99.90;;;;;;4985078;28;20694;-80
2021/01/31 03:05:11;;;;;;;45.70;24.00;;;-1.40;99.90;;;;;;4971307;28;20232;-79
2021/01/31 03:07:44;;;;;;;44.37;23.93;;;-1.40;99.90;;;;;;4969368;28;20211;-79
2021/01/31 03:10:15;;;;;;;43.63;23.87;;;-1.40;99.90;;;;;;4985524;28;20596;-81
2021/01/31 03:12:49;;;;;;;43.40;23.70;;;-1.40;99.90;;;;;;4989407;28;20207;-79
2021/01/31 03:15:21;;;;;;;46.17;24.10;;;-1.40;99.90;;;;;;4989157;28;20226;-79
2021/01/31 03:17:56;;;;;;;42.07;22.60;;;-1.50;99.90;;;;;;4988142;28;20212;-80
2021/01/31 03:20:27;;;;;;;42.30;23.77;;;-1.40;99.90;;;;;;4989549;28;20254;-82
2021/01/31 03:22:59;;;;;;;39.50;21.63;;;-1.40;99.90;;;;;;4988858;28;20192;-81
2021/01/31 03:25:31;;;;;;;39.63;21.13;;;-1.40;99.90;;;;;;4989642;28;20243;-79
2021/01/31 03:27:57;;;;;;;42.03;22.53;;;-1.40;99.90;;;;;;4970345;28;20271;-80
2021/01/31 03:30:24;;;;;;;43.43;22.63;;;-1.50;99.90;;;;;;4981518;28;20204;-80
2021/01/31 03:32:55;;;;;;;40.83;22.93;;;-1.40;99.90;;;;;;4989398;28;20512;-79
2021/01/31 03:35:27;;;;;;;41.47;23.20;;;-1.40;99.90;;;;;;4989611;28;20627;-79
2021/01/31 03:38:00;;;;;;;39.23;22.50;;;-1.50;99.90;;;;;;4988374;28;20742;-80
2021/01/31 03:40:28;;;;;;;43.07;22.03;;;-1.40;99.90;;;;;;4989577;28;20228;-80
2021/01/31 03:42:55;;;;;;;41.23;23.10;;;-1.40;99.90;;;;;;4989161;28;20207;-80
2021/01/31 03:45:29;;;;;;;41.17;22.27;;;-1.40;99.90;;;;;;4971535;28;20209;-79
2021/01/31 03:48:02;;;;;;;40.00;22.30;;;-1.50;99.90;;;;;;4969713;28;20208;-80
2021/01/31 03:50:30;;;;;;;44.87;23.00;;;-1.40;99.90;;;;;;4976705;28;20207;-81
2021/01/31 03:52:57;;;;;;;45.57;23.23;;;-1.40;99.90;;;;;;4988976;28;20867;-80
2021/01/31 03:55:23;;;;;;;40.20;22.60;;;-1.40;99.90;;;;;;4989761;28;20200;-79
2021/01/31 03:57:54;;;;;;;38.27;21.87;;;-1.50;99.90;;;;;;4988296;28;20620;-81
2021/01/31 04:00:25;;;;;;;40.00;22.33;;;-1.50;99.90;;;;;;4977461;28;20209;-78
2021/01/31 04:02:55;;;;;;;42.33;21.60;;;-1.50;99.90;;;;;;4969488;28;20189;-80
2021/01/31 04:05:24;;;;;;;41.63;23.23;;;-1.60;99.90;;;;;;4975619;28;20204;-80
2021/01/31 04:07:53;;;;;;;40.10;23.10;;;-1.60;99.90;;;;;;4988965;28;20196;-80
2021/01/31 04:10:21;;;;;;;36.67;21.50;;;-1.50;99.90;;;;;;4988800;28;20363;-78
2021/01/31 04:12:52;;;;;;;34.80;19.93;;;-1.50;99.90;;;;;;4989059;28;20223;-80
2021/01/31 04:15:30;;;;;;;41.00;22.07;;;-1.60;99.90;;;;;;4989586;28;20232;-79
2021/01/31 04:17:58;;;;;;;41.60;21.80;;;-1.50;99.90;;;;;;4988802;28;20207;-80
2021/01/31 04:20:24;;;;;;;39.13;21.90;;;-1.60;99.90;;;;;;4969128;28;20196;-80
2021/01/31 04:22:52;;;;;;;44.43;24.03;;;-1.60;99.90;;;;;;4969416;28;20196;-79
2021/01/31 04:25:18;;;;;;;42.17;20.60;;;-1.60;99.90;;;;;;4969107;28;20245;-80
2021/01/31 04:27:44;;;;;;;42.10;22.73;;;-1.60;99.90;;;;;;4973943;28;20255;-79
2021/01/31 04:30:12;;;;;;;39.67;22.13;;;-1.60;99.90;;;;;;4989388;28;20611;-80
2021/01/31 04:32:38;;;;;;;38.10;21.77;;;-1.60;99.90;;;;;;4988117;28;20218;-81
2021/01/31 04:35:07;;;;;;;38.40;20.77;;;-1.60;99.90;;;;;;4986489;28;20227;-81
2021/01/31 04:37:34;;;;;;;37.43;21.37;;;-1.60;99.90;;;;;;4987012;28;20294;-81
2021/01/31 04:40:01;;;;;;;36.73;20.10;;;-1.50;99.90;;;;;;4985860;28;20238;-79
2021/01/31 04:42:28;;;;;;;40.90;21.13;;;-1.50;99.90;;;;;;4985805;28;20207;-80
2021/01/31 04:44:55;;;;;;;41.23;22.00;;;-1.50;99.90;;;;;;4987261;28;20285;-80
2021/01/31 04:47:26;;;;;;;37.17;21.00;;;-1.50;99.90;;;;;;4985155;28;20206;-79
2021/01/31 04:50:03;;;;;;;42.80;22.17;;;-1.60;99.90;;;;;;4966670;28;20576;-79
2021/01/31 04:52:48;;;;;;;36.23;20.43;;;-1.50;99.90;;;;;;4967148;28;20683;-78
2021/01/31 04:55:33;;;;;;;42.20;21.93;;;-1.60;99.90;;;;;;4967296;28;20295;-79
2021/01/31 04:58:10;;;;;;;37.00;20.00;;;-1.60;99.90;;;;;;4968839;28;20213;-81
2021/01/31 05:00:43;;;;;;;44.23;23.50;;;-1.60;99.90;;;;;;4966497;28;20311;-79
2021/01/31 05:03:11;;;;;;;41.10;21.67;;;-1.60;99.90;;;;;;4967091;28;20577;-79
2021/01/31 05:05:44;;;;;;;41.23;22.67;;;-1.60;99.90;;;;;;4976614;28;20211;-78
2021/01/31 05:08:18;;;;;;;37.47;21.50;;;-1.60;99.90;;;;;;4985641;28;20258;-79
2021/01/31 05:10:46;;;;;;;38.67;20.60;;;-1.60;99.90;;;;;;4986214;28;20234;-79
2021/01/31 05:13:25;;;;;;;38.73;20.40;;;-1.60;99.90;;;;;;4986075;28;20200;-80
2021/01/31 05:15:59;;;;;;;38.03;19.63;;;-1.70;99.90;;;;;;4984074;28;20237;-79
2021/01/31 05:18:27;;;;;;;39.73;21.17;;;-1.60;99.90;;;;;;4985692;28;20202;-79
2021/01/31 05:20:58;;;;;;;43.07;22.30;;;-1.70;99.90;;;;;;4986134;28;20204;-79
2021/01/31 05:23:24;;;;;;;41.40;22.10;;;-1.70;99.90;;;;;;4985179;28;20243;-79
2021/01/31 05:25:52;;;;;;;39.47;21.57;;;-1.70;99.90;;;;;;4983548;28;20246;-79
2021/01/31 05:28:22;;;;;;;35.17;20.30;;;-1.70;99.90;;;;;;4984585;28;20208;-78
2021/01/31 05:30:50;;;;;;;38.30;20.20;;;-1.60;99.90;;;;;;4985077;28;20204;-80
2021/01/31 05:33:17;;;;;;;39.60;21.17;;;-1.50;99.90;;;;;;4984836;28;20610;-79
2021/01/31 05:35:46;;;;;;;42.87;22.17;;;-1.50;99.90;;;;;;4984698;28;20211;-80
2021/01/31 05:38:13;;;;;;;39.50;21.53;;;-1.60;99.90;;;;;;4984083;28;20207;-78
2021/01/31 05:40:43;;;;;;;38.10;20.40;;;-1.60;99.90;;;;;;4983911;28;20261;-78
2021/01/31 05:43:16;;;;;;;39.97;20.87;;;-1.60;99.90;;;;;;4983235;28;20246;-80
2021/01/31 05:45:44;;;;;;;41.77;21.77;;;-1.70;99.90;;;;;;4984965;28;20184;-79
2021/01/31 05:48:35;;;;;;;38.93;20.40;;;-1.70;99.90;;;;;;4984918;28;20210;-79
2021/01/31 05:51:13;;;;;;;38.20;20.13;;;-1.60;99.90;;;;;;4978661;28;20247;-78
2021/01/31 05:53:40;;;;;;;42.27;21.93;;;-1.60;99.90;;;;;;4984431;28;20800;-81
2021/01/31 05:56:22;;;;;;;39.47;21.30;;;-1.60;99.90;;;;;;4982498;28;20216;-79
2021/01/31 05:58:49;;;;;;;43.80;22.73;;;-1.60;99.90;;;;;;4986446;28;20231;-82
2021/01/31 06:01:16;;;;;;;40.13;20.63;;;-1.70;99.90;;;;;;4986153;28;20212;-81
2021/01/31 06:03:43;;;;;;;38.17;20.00;;;-1.70;99.90;;;;;;4985048;28;20254;-78
2021/01/31 06:06:24;;;;;;;38.53;21.27;;;-1.70;99.90;;;;;;4985481;28;20212;-80
2021/01/31 06:08:52;;;;;;;36.93;19.63;;;-1.70;99.90;;;;;;4984690;28;20207;-80
2021/01/31 06:11:22;;;;;;;41.90;20.83;;;-1.60;99.90;;;;;;4982835;28;20927;-80
2021/01/31 06:14:02;;;;;;;39.67;21.37;;;-1.50;99.90;;;;;;4965077;28;20205;-79
2021/01/31 06:16:29;;;;;;;42.57;21.77;;;-1.50;99.90;;;;;;4965922;28;20544;-78
2021/01/31 06:19:08;;;;;;;40.30;22.23;;;-1.40;99.90;;;;;;4964790;28;20217;-81
2021/01/31 06:21:37;;;;;;;41.63;21.20;;;-1.40;99.90;;;;;;4974121;28;20212;-81
2021/01/31 06:24:18;;;;;;;42.07;22.00;;;-1.40;99.90;;;;;;4971238;28;20232;-81
2021/01/31 06:26:45;;;;;;;40.17;19.83;;;-1.40;99.90;;;;;;4965688;28;20262;-79
2021/01/31 06:29:18;;;;;;;39.40;21.43;;;-1.40;99.90;;;;;;4968501;28;20204;-78
2021/01/31 06:31:49;;;;;;;41.17;21.07;;;-1.40;99.90;;;;;;4986314;28;20211;-81
2021/01/31 06:34:16;;;;;;;37.70;21.20;;;-1.40;99.90;;;;;;4986910;28;20211;-80
2021/01/31 06:36:51;;;;;;;39.10;21.17;;;-1.50;99.90;;;;;;4985836;28;20196;-79
2021/01/31 06:39:35;;;;;;;41.53;21.53;;;-1.50;99.90;;;;;;4986279;28;20220;-82
2021/01/31 06:42:10;;;;;;;37.27;20.10;;;-1.50;99.90;;;;;;4987074;28;20235;-81
2021/01/31 06:44:58;;;;;;;41.80;22.10;;;-1.50;99.90;;;;;;4987089;28;20218;-81
2021/01/31 06:47:44;;;;;;;35.73;18.87;;;-1.50;99.90;;;;;;4989585;28;20298;-81
2021/01/31 06:50:18;;;;;;;41.70;21.30;;;-1.50;99.90;;;;;;4988760;28;20307;-80
2021/01/31 06:52:55;;;;;;;36.90;19.97;;;-1.60;99.90;;;;;;4989234;28;20230;-80
2021/01/31 06:55:35;;;;;;;36.47;20.40;;;-1.60;99.90;;;;;;4989074;28;20243;-79
2021/01/31 06:58:38;;;;;;;38.27;20.83;;;-1.60;99.90;;;;;;4988370;28;20211;-78
2021/01/31 07:01:26;;;;;;;41.47;22.23;;;-1.70;99.90;;;;;;4989411;28;20203;-80
2021/01/31 07:04:14;;;;;;;36.70;20.13;;;-1.70;99.90;;;;;;4988158;28;20306;-82
2021/01/31 07:07:12;;;;;;;38.53;19.73;;;-1.70;99.90;;;;;;4986893;28;20223;-79
2021/01/31 07:09:58;;;;;;;36.47;19.17;;;-1.80;99.90;;;;;;4971769;28;20200;-81
2021/01/31 07:12:27;;;;;;;37.13;18.20;;;-1.80;99.90;;;;;;4971786;28;20307;-82
2021/01/31 07:14:59;;;;;;;36.37;20.77;;;-1.80;99.90;;;;;;4971773;28;20205;-82
2021/01/31 07:17:33;;;;;;;38.47;19.43;;;-1.80;99.90;;;;;;4972016;28;20532;-82
2021/01/31 07:20:05;;;;;;;37.37;19.57;;;-1.80;99.90;;;;;;4971796;28;20291;-81
2021/01/31 07:22:40;;;;;;;37.03;19.20;;;-1.90;99.90;;;;;;4972097;28;20197;-83
2021/01/31 07:25:12;;;;;;;37.17;19.23;;;-1.90;99.90;;;;;;4970565;28;20663;-82
2021/01/31 07:27:44;;;;;;;38.47;20.33;;;-1.80;99.90;;;;;;4972661;28;20573;-83
2021/01/31 07:30:18;;;;;;;38.60;21.20;;;-1.80;99.90;;;;;;4971871;28;20609;-81
2021/01/31 07:33:04;;;;;;;39.43;20.47;;;-1.80;99.90;;;;;;4991710;28;20211;-81
2021/01/31 07:52:08;;;;;;;36.53;19.67;;;-1.70;99.90;;;;;;5213012;23;20240;-78
2021/01/31 07:54:37;;;;;;;37.10;19.67;;;-1.80;99.90;;;;;;4967609;28;20303;-78
2021/01/31 07:57:28;;;;;;;34.10;18.80;;;-1.70;99.90;;;;;;4966788;28;20513;-78
2021/01/31 07:59:55;;;;;;;39.57;19.27;;;-1.70;99.90;;;;;;4967557;28;20818;-78
2021/01/31 08:02:37;;;;;;;35.07;19.30;;;-1.70;99.90;;;;;;4967746;28;20329;-78
2021/01/31 08:05:05;;;;;;;35.93;18.83;;;-1.70;99.90;;;;;;4965802;28;20278;-78
2021/01/31 08:08:01;;;;;;;37.87;20.90;;;-1.70;99.90;;;;;;4968354;28;20292;-77
2021/01/31 08:10:43;;;;;;;36.30;18.10;;;-1.60;99.90;;;;;;4967009;28;20196;-77
2021/01/31 08:13:38;;;;;;;32.80;18.10;;;-1.60;99.90;;;;;;4967182;28;20416;-76
2021/01/31 08:16:42;;;;;;;35.93;18.80;;;-1.70;99.90;;;;;;4940419;29;20215;-77
2021/01/31 08:19:24;;;;;;;37.67;18.30;;;-1.60;99.90;;;;;;4947107;29;20205;-78
2021/01/31 08:21:53;;;;;;;35.60;19.83;;;-1.60;99.90;;;;;;4955659;28;20212;-79
2021/01/31 08:24:57;;;;;;;33.40;19.07;;;-1.50;99.90;;;;;;4967466;28;20287;-78
2021/01/31 08:27:50;;;;;;;35.50;18.30;;;-1.40;99.90;;;;;;4966375;28;20207;-78
2021/01/31 08:30:23;;;;;;;36.90;18.67;;;-1.40;99.90;;;;;;4947411;29;20208;-79
2021/01/31 08:33:06;;;;;;;38.33;19.97;;;-1.30;99.90;;;;;;4947795;29;20194;-78
2021/01/31 08:35:36;;;;;;;35.97;19.30;;;-1.30;99.90;;;;;;4944064;28;20230;-81
2021/01/31 08:38:14;;;;;;;33.10;18.73;;;-1.30;99.90;;;;;;4928677;29;20194;-82
2021/01/31 08:40:42;;;;;;;36.23;19.90;;;-1.20;99.90;;;;;;4941034;29;20287;-80
2021/01/31 08:43:11;;;;;;;37.17;20.43;;;-1.20;99.90;;;;;;4947543;29;20206;-80
2021/01/31 08:45:43;;;;;;;32.77;17.97;;;-1.10;99.90;;;;;;4946215;29;20247;-81
2021/01/31 08:48:09;;;;;;;38.60;19.77;;;-1.10;99.90;;;;;;4947505;29;20206;-79
2021/01/31 08:50:36;;;;;;;37.97;20.50;;;-1.00;99.90;;;;;;4948484;29;20201;-80
2021/01/31 08:53:04;;;;;;;40.23;20.00;;;-1.00;99.90;;;;;;4946687;29;20221;-80
2021/01/31 08:55:30;;;;;;;35.27;19.53;;;-0.90;99.90;;;;;;4947336;29;20292;-81
2021/01/31 08:58:00;;;;;;;35.57;18.97;;;-0.80;99.90;;;;;;4947867;29;20221;-80
2021/01/31 09:00:30;;;;;;;35.07;18.10;;;-0.70;99.90;;;;;;4946231;29;20245;-80
2021/01/31 09:02:57;;;;;;;34.77;19.20;;;-0.70;99.90;;;;;;4948138;29;20206;-82
2021/01/31 09:05:23;;;;;;;36.80;19.33;;;-0.70;99.90;;;;;;4947486;29;20240;-80
2021/01/31 09:07:52;;;;;;;36.00;18.57;;;-0.70;99.90;;;;;;4946304;28;20268;-80
2021/01/31 09:10:40;;;;;;;35.83;17.70;;;-0.60;99.90;;;;;;4947191;29;20213;-81
2021/01/31 09:13:16;;;;;;;31.83;16.73;;;-0.60;99.90;;;;;;4947626;29;20211;-80
2021/01/31 09:15:44;;;;;;;35.50;19.23;;;-0.60;99.90;;;;;;4946424;29;20209;-81
2021/01/31 09:18:17;;;;;;;33.57;18.53;;;-0.60;99.90;;;;;;4947887;29;20613;-80
2021/01/31 09:20:44;;;;;;;33.90;17.87;;;-0.50;99.90;;;;;;4947419;29;20874;-79
2021/01/31 09:23:18;;;;;;;37.43;18.70;;;-0.50;99.90;;;;;;4930528;29;20221;-79
2021/01/31 09:25:45;;;;;;;34.43;18.17;;;-0.40;99.90;;;;;;4927360;29;20291;-80
2021/01/31 09:28:18;;;;;;;33.83;18.77;;;-0.40;99.90;;;;;;4927402;29;20206;-79
2021/01/31 09:30:46;;;;;;;33.37;17.37;;;-0.30;99.90;;;;;;4943759;29;20213;-80
2021/01/31 09:33:26;;;;;;;30.97;16.57;;;-0.30;99.90;;;;;;4945475;29;20209;-81
2021/01/31 09:35:53;;;;;;;34.80;17.90;;;-0.30;99.90;;;;;;4945851;28;20783;-79
2021/01/31 09:38:23;;;;;;;32.67;17.97;;;-0.20;99.90;;;;;;4958186;23;20239;-80
2021/01/31 09:40:55;;;;;;;36.37;17.57;;;-0.20;99.90;;;;;;4964587;28;20201;-80
2021/01/31 09:43:25;;;;;;;32.37;16.80;;;-0.20;99.90;;;;;;4963195;28;20271;-80
2021/01/31 09:45:55;;;;;;;31.20;17.07;;;-0.20;99.90;;;;;;4977641;28;20234;-79
2021/01/31 09:48:24;;;;;;;30.40;16.90;;;-0.20;99.90;;;;;;4967548;28;20205;-79
2021/01/31 09:50:56;;;;;;;32.50;17.97;;;-0.20;99.90;;;;;;4966273;28;20211;-80
2021/01/31 09:53:32;;;;;;;26.43;16.33;;;-0.10;99.90;;;;;;4984082;28;20196;-78
2021/01/31 09:56:00;;;;;;;30.07;16.20;;;-0.20;99.90;;;;;;4983497;28;20207;-80
2021/01/31 09:58:36;;;;;;;27.83;16.20;;;-0.20;99.90;;;;;;4983743;28;20204;-80
2021/01/31 10:01:16;;;;;;;28.97;16.50;;;-0.20;99.90;;;;;;4984713;28;20218;-79
2021/01/31 10:03:43;;;;;;;28.03;15.83;;;-0.10;99.90;;;;;;4982887;28;20212;-80
2021/01/31 10:06:12;;;;;;;25.47;14.93;;;-0.20;99.90;;;;;;4981780;28;20229;-81
2021/01/31 10:08:47;;;;;;;24.30;14.97;;;-0.10;99.90;;;;;;4982324;28;20563;-81
2021/01/31 10:11:39;;;;;;;22.73;13.83;;;-0.10;99.90;;;;;;4982310;28;20211;-80
2021/01/31 10:14:07;;;;;;;24.00;13.93;;;0.00;99.90;;;;;;4963541;28;20667;-79
2021/01/31 10:16:37;;;;;;;22.27;13.37;;;0.00;99.90;;;;;;4983569;28;20207;-80
2021/01/31 10:19:13;;;;;;;26.87;15.20;;;0.10;99.90;;;;;;4966255;28;20636;-79
2021/01/31 10:21:42;;;;;;;22.53;14.03;;;0.10;99.90;;;;;;4974499;28;20211;-80
2021/01/31 10:24:26;;;;;;;28.73;15.93;;;0.10;99.90;;;;;;4983451;28;20227;-79
2021/01/31 10:27:12;;;;;;;22.17;12.97;;;0.20;99.90;;;;;;4984313;28;20196;-80
2021/01/31 10:29:38;;;;;;;20.90;12.93;;;0.20;99.90;;;;;;4982093;28;20215;-79
2021/01/31 10:32:39;;;;;;;21.90;12.37;;;0.30;99.90;;;;;;4963379;28;20204;-80
2021/01/31 10:35:24;;;;;;;18.43;11.67;;;0.30;99.90;;;;;;4964043;28;20592;-80
2021/01/31 10:37:50;;;;;;;20.20;12.93;;;0.30;99.90;;;;;;4981440;28;20259;-80
2021/01/31 10:40:17;;;;;;;19.67;12.70;;;0.40;99.90;;;;;;4983053;28;20207;-79
2021/01/31 10:42:43;;;;;;;19.90;13.13;;;0.50;99.90;;;;;;4982685;28;20211;-80
2021/01/31 10:45:13;;;;;;;19.90;12.67;;;0.60;99.90;;;;;;4983840;28;20227;-80
2021/01/31 10:47:43;;;;;;;25.03;12.47;;;0.60;99.90;;;;;;4982352;28;20199;-79
2021/01/31 10:50:10;;;;;;;16.07;11.03;;;0.70;99.90;;;;;;4983164;28;20218;-80
2021/01/31 10:52:37;;;;;;;18.97;12.07;;;0.80;99.90;;;;;;4981810;28;20832;-79
2021/01/31 10:55:04;;;;;;;17.27;11.27;;;0.80;99.90;;;;;;4964569;28;20211;-79
2021/01/31 10:57:31;;;;;;;18.40;12.40;;;0.90;99.90;;;;;;4964912;28;20212;-79
2021/01/31 10:59:57;;;;;;;21.20;12.13;;;1.00;99.90;;;;;;4963806;28;20213;-80
2021/01/31 11:02:24;;;;;;;17.87;11.50;;;1.10;99.90;;;;;;4971868;28;20215;-80
2021/01/31 11:04:51;;;;;;;15.30;10.83;;;1.20;99.90;;;;;;4983193;28;20231;-79
2021/01/31 11:07:17;;;;;;;18.07;11.77;;;1.20;99.90;;;;;;4983324;28;20922;-79
2021/01/31 11:09:44;;;;;;;17.53;12.00;;;1.40;99.90;;;;;;4981940;28;20212;-80
2021/01/31 11:12:10;;;;;;;16.47;11.00;;;1.40;99.90;;;;;;4983396;28;20204;-79
2021/01/31 11:14:36;;;;;;;17.77;11.53;;;1.40;99.90;;;;;;4982764;28;20200;-80
2021/01/31 11:17:02;;;;;;;14.97;10.43;;;1.40;99.90;;;;;;4982078;28;20250;-79
2021/01/31 11:19:29;;;;;;;14.57;10.63;;;1.40;99.90;;;;;;4983322;28;20274;-79
2021/01/31 11:21:56;;;;;;;16.50;10.03;;;1.40;99.90;;;;;;4981811;28;20243;-80
2021/01/31 11:24:22;;;;;;;16.17;9.73;;;1.40;99.90;;;;;;4983619;28;20632;-79
2021/01/31 11:26:48;;;;;;;17.00;10.50;;;1.40;99.90;;;;;;4983815;28;20615;-80
2021/01/31 11:29:15;;;;;;;15.50;10.40;;;1.50;99.90;;;;;;4971106;28;20213;-80
2021/01/31 11:31:41;;;;;;;15.37;10.60;;;1.60;99.90;;;;;;4965762;28;20201;-79
2021/01/31 11:34:08;;;;;;;16.23;10.87;;;1.70;99.90;;;;;;4967191;28;20204;-78
2021/01/31 11:36:34;;;;;;;15.30;10.00;;;1.80;99.90;;;;;;4967608;28;20228;-78
2021/01/31 11:39:07;;;;;;;15.40;10.07;;;1.80;99.90;;;;;;4986097;28;20240;-79
2021/01/31 11:41:34;;;;;;;14.07;9.90;;;1.90;99.90;;;;;;4986462;28;20199;-78
2021/01/31 11:44:00;;;;;;;14.33;9.50;;;2.00;99.90;;;;;;4984026;28;20875;-78
2021/01/31 11:46:26;;;;;;;13.47;8.53;;;2.00;99.90;;;;;;4986502;28;20204;-78
2021/01/31 11:48:53;;;;;;;15.30;9.80;;;2.10;99.90;;;;;;4985563;28;20212;-78
2021/01/31 11:51:19;;;;;;;12.90;8.63;;;2.10;99.90;;;;;;4985509;28;20203;-77
2021/01/31 11:53:45;;;;;;;12.17;8.37;;;2.20;99.90;;;;;;4986005;28;20211;-80
2021/01/31 11:56:13;;;;;;;12.00;8.57;;;2.30;99.90;;;;;;4984568;28;20214;-78
2021/01/31 11:58:39;;;;;;;10.10;7.77;;;2.40;99.90;;;;;;4985706;28;20288;-79
2021/01/31 12:01:06;;;;;;;12.80;9.03;;;2.40;99.90;;;;;;4986417;28;20212;-79
2021/01/31 12:03:32;;;;;;;12.63;8.33;;;2.50;99.90;;;;;;4986449;28;20208;-80
2021/01/31 12:05:58;;;;;;;13.47;8.50;;;2.60;99.90;;;;;;4967897;28;20319;-79
2021/01/31 12:08:25;;;;;;;13.60;8.23;;;2.60;99.90;;;;;;4966815;28;20208;-79
2021/01/31 12:10:51;;;;;;;11.47;8.10;;;2.70;99.90;;;;;;4965804;28;20207;-78
2021/01/31 12:13:18;;;;;;;12.80;8.60;;;2.80;99.90;;;;;;4969563;28;20215;-79
2021/01/31 12:15:45;;;;;;;31.47;19.93;;;2.80;99.90;;;;;;4985371;28;20204;-79
2021/01/31 12:18:11;;;;;;;11.93;7.97;;;2.90;99.90;;;;;;4983679;28;20215;-79
2021/01/31 12:20:38;;;;;;;10.83;7.27;;;2.90;99.90;;;;;;4984718;28;20324;-80
2021/01/31 12:23:04;;;;;;;10.93;7.10;;;3.00;99.90;;;;;;4984561;28;20215;-79
2021/01/31 12:25:30;;;;;;;11.33;7.33;;;3.00;99.90;;;;;;4983696;28;20677;-80
2021/01/31 12:27:57;;;;;;;11.90;7.83;;;3.00;99.90;;;;;;4984779;28;20214;-79
2021/01/31 12:30:28;;;;;;;10.93;7.40;;;3.10;99.90;;;;;;4984502;28;20444;-78
2021/01/31 12:32:55;;;;;;;9.90;7.37;;;3.10;99.90;;;;;;4984448;28;20223;-79
2021/01/31 12:35:21;;;;;;;12.10;8.17;;;3.20;99.90;;;;;;4984171;28;20274;-78
2021/01/31 12:37:47;;;;;;;9.93;7.00;;;3.20;99.90;;;;;;4983411;28;20730;-79
2021/01/31 12:40:15;;;;;;;10.97;7.00;;;3.20;99.90;;;;;;4981285;28;20246;-80
2021/01/31 12:42:42;;;;;;;10.73;7.30;;;3.20;99.90;;;;;;4964945;28;20214;-79
2021/01/31 12:45:09;;;;;;;13.10;7.57;;;3.10;99.90;;;;;;4965522;28;20232;-79
2021/01/31 12:47:36;;;;;;;17.73;8.17;;;3.10;99.90;;;;;;4978662;28;20208;-80
2021/01/31 12:50:04;;;;;;;9.23;7.37;;;3.20;99.90;;;;;;4984993;28;20653;-79
2021/01/31 12:52:30;;;;;;;10.33;6.93;;;3.10;99.90;;;;;;4964983;28;20921;-78
2021/01/31 12:54:56;;;;;;;8.47;6.70;;;3.10;99.90;;;;;;4970211;28;20204;-79
2021/01/31 12:57:23;;;;;;;9.83;7.20;;;3.10;99.90;;;;;;4984828;28;20200;-78
2021/01/31 12:59:50;;;;;;;12.77;7.53;;;3.10;99.90;;;;;;4982511;28;20219;-79
2021/01/31 13:02:16;;;;;;;10.40;7.30;;;3.20;99.90;;;;;;4966198;28;20200;-79
2021/01/31 13:04:43;;;;;;;9.33;7.00;;;3.20;99.90;;;;;;4965632;28;20232;-78
2021/01/31 13:07:09;;;;;;;10.80;7.97;;;3.20;99.90;;;;;;4965651;28;20204;-82
2021/01/31 13:09:36;;;;;;;8.20;6.37;;;3.20;99.90;;;;;;4967055;28;20601;-80